Time;durP1;ratioP1;P1;durP2;ratioP2;P2;SDS_P1;SDS_P2;PMS_P1;PMS_P2;Temp;Humidity;BMP_temperature;BMP_pressure;BME280_temperature;BME280_humidity;BME280_pressure;Samples;Min_cycle;Max_cycle;Signal;HPM_P1;HPM_P2
2022/07/04 00:00:12;;;;;;;2.47;2.37;;;;;;;18.71;100.00;99414.78;5071151;28;20227;-78
2022/07/04 00:02:40;;;;;;;2.30;2.20;;;;;;;18.70;100.00;99411.25;5073214;28;20232;-77
2022/07/04 00:05:10;;;;;;;4.50;2.63;;;;;;;18.68;100.00;99418.03;5059246;28;20672;-79
2022/07/04 00:07:37;;;;;;;2.70;2.50;;;;;;;18.66;100.00;99429.19;5077834;28;20231;-78
2022/07/04 00:10:05;;;;;;;3.93;2.30;;;;;;;18.60;100.00;99419.44;5074095;28;20230;-78
2022/07/04 00:12:32;;;;;;;2.30;2.10;;;;;;;18.59;100.00;99425.94;5080100;28;20239;-78
2022/07/04 00:15:00;;;;;;;2.30;2.10;;;;;;;18.56;100.00;99420.25;5052239;28;20236;-78
2022/07/04 00:17:27;;;;;;;2.80;2.50;;;;;;;18.54;100.00;99417.81;5070961;28;20315;-78
2022/07/04 00:19:54;;;;;;;2.67;2.47;;;;;;;18.52;100.00;99419.16;5074957;28;20736;-77
2022/07/04 00:22:20;;;;;;;2.60;2.40;;;;;;;18.51;100.00;99417.53;5059221;28;20232;-79
2022/07/04 00:24:47;;;;;;;2.50;2.30;;;;;;;18.43;100.00;99403.44;5076668;28;20326;-79
2022/07/04 00:27:14;;;;;;;2.87;2.50;;;;;;;18.36;100.00;99402.94;5077756;28;20234;-78
2022/07/04 00:29:41;;;;;;;2.93;2.63;;;;;;;18.35;100.00;99404.00;5075300;28;20310;-80
2022/07/04 00:32:08;;;;;;;3.00;2.50;;;;;;;18.32;100.00;99399.16;5074888;28;20241;-78
2022/07/04 00:34:34;;;;;;;2.53;2.33;;;;;;;18.30;100.00;99403.22;5076439;28;20699;-78
2022/07/04 00:37:01;;;;;;;3.23;2.70;;;;;;;18.26;100.00;99404.84;5076382;28;20325;-79
2022/07/04 00:39:28;;;;;;;2.67;2.47;;;;;;;18.20;100.00;99405.94;5057289;28;20226;-78
2022/07/04 00:41:54;;;;;;;3.47;2.70;;;;;;;18.14;100.00;99405.16;5072540;28;20318;-79
2022/07/04 00:44:21;;;;;;;2.60;2.40;;;;;;;18.11;100.00;99402.97;5065997;28;20584;-78
2022/07/04 00:46:48;;;;;;;3.20;2.90;;;;;;;18.07;100.00;99404.63;5075134;28;20327;-78
2022/07/04 00:49:16;;;;;;;2.80;2.60;;;;;;;18.04;100.00;99403.28;5071224;28;20670;-79
2022/07/04 00:51:45;;;;;;;3.00;2.80;;;;;;;18.00;100.00;99406.81;5073439;28;20736;-77
2022/07/04 00:54:14;;;;;;;2.90;2.70;;;;;;;17.99;100.00;99399.75;5073987;28;20721;-79
2022/07/04 00:56:43;;;;;;;3.03;2.80;;;;;;;17.97;100.00;99404.63;5055774;28;20258;-79
2022/07/04 00:59:11;;;;;;;2.97;2.77;;;;;;;17.84;100.00;99402.47;5074314;28;20228;-78
2022/07/04 01:01:38;;;;;;;3.40;2.90;;;;;;;17.80;100.00;99407.63;5076162;28;20761;-78
2022/07/04 01:04:05;;;;;;;3.37;3.10;;;;;;;17.77;100.00;99408.19;5069000;28;20232;-78
2022/07/04 01:06:33;;;;;;;3.20;3.00;;;;;;;17.76;100.00;99408.44;5053320;28;20236;-77
2022/07/04 01:09:00;;;;;;;3.20;3.00;;;;;;;17.75;100.00;99404.94;5071185;28;20245;-78
2022/07/04 01:11:26;;;;;;;3.30;3.00;;;;;;;17.74;100.00;99399.75;5068681;28;20385;-78
2022/07/04 01:13:54;;;;;;;4.23;3.30;;;;;;;17.73;100.00;99400.88;5070559;28;20235;-79
2022/07/04 01:16:21;;;;;;;3.30;3.10;;;;;;;17.72;100.00;99393.81;5074024;28;20329;-78
2022/07/04 01:18:47;;;;;;;3.57;3.27;;;;;;;17.71;100.00;99393.00;5070275;28;20223;-78
2022/07/04 01:21:14;;;;;;;4.17;3.50;;;;;;;17.70;100.00;99396.78;5064778;28;20609;-80
2022/07/04 01:23:41;;;;;;;3.80;3.37;;;;;;;17.70;100.00;99401.41;5061021;28;20317;-78
2022/07/04 01:26:08;;;;;;;3.93;3.47;;;;;;;17.66;100.00;99398.44;5063704;28;20237;-78
2022/07/04 01:28:35;;;;;;;3.73;3.43;;;;;;;17.66;100.00;99406.56;5063038;28;20243;-78
2022/07/04 01:31:02;;;;;;;3.80;3.50;;;;;;;17.63;100.00;99409.81;5065957;28;20254;-78
2022/07/04 01:33:29;;;;;;;4.10;3.60;;;;;;;17.61;100.00;99406.56;5060928;28;20243;-78
2022/07/04 01:35:56;;;;;;;3.80;3.50;;;;;;;17.60;100.00;99404.91;5065334;28;20320;-80
2022/07/04 01:38:22;;;;;;;3.60;3.37;;;;;;;17.60;100.00;99404.91;5060306;28;20724;-78
2022/07/04 01:40:49;;;;;;;3.93;3.63;;;;;;;17.57;100.00;99391.91;5059104;28;20926;-79
2022/07/04 01:43:16;;;;;;;3.97;3.60;;;;;;;17.55;100.00;99394.03;5060800;28;20238;-79
2022/07/04 01:45:43;;;;;;;4.00;3.70;;;;;;;17.55;100.00;99391.34;5056475;28;20241;-79
2022/07/04 01:48:11;;;;;;;4.20;3.77;;;;;;;17.55;100.00;99386.75;5061994;28;20282;-78
2022/07/04 01:50:39;;;;;;;3.80;3.60;;;;;;;17.53;100.00;99388.09;5063868;28;20704;-79
2022/07/04 01:53:05;;;;;;;4.23;3.87;;;;;;;17.57;100.00;99390.00;5065483;28;20255;-78
2022/07/04 01:55:32;;;;;;;4.37;3.70;;;;;;;17.59;100.00;99389.75;5061079;28;20229;-78
2022/07/04 01:58:00;;;;;;;3.80;3.50;;;;;;;17.57;100.00;99381.88;5062518;28;20330;-78
2022/07/04 02:03:12;;;;;;;4.37;3.80;;;;;;;17.46;100.00;99390.25;5061352;28;20611;-77
2022/07/04 02:05:39;;;;;;;6.30;3.90;;;;;;;17.40;100.00;99386.75;5060987;28;20251;-78
2022/07/04 02:08:07;;;;;;;4.10;3.70;;;;;;;17.35;100.00;99385.94;5071726;28;20211;-78
2022/07/04 02:10:34;;;;;;;4.00;3.50;;;;;;;17.29;100.00;99373.47;5067694;28;20634;-78
2022/07/04 02:13:00;;;;;;;4.10;3.70;;;;;;;17.29;100.00;99378.88;5073361;28;20234;-78
2022/07/04 02:15:37;;;;;;;3.97;3.67;;;;;;;17.26;100.00;99384.84;5077968;28;20329;-83
2022/07/04 02:18:06;;;;;;;4.23;3.70;;;;;;;17.18;100.00;99383.44;5066880;28;20233;-80
2022/07/04 02:20:34;;;;;;;4.47;4.03;;;;;;;17.15;100.00;99382.09;5070766;28;20225;-78
2022/07/04 02:23:01;;;;;;;4.23;3.90;;;;;;;17.14;100.00;99379.66;5049610;28;20320;-78
2022/07/04 02:25:28;;;;;;;4.20;3.90;;;;;;;17.09;100.00;99388.59;5072835;28;20237;-78
2022/07/04 02:27:55;;;;;;;4.27;3.97;;;;;;;17.06;100.00;99377.50;5071363;28;20313;-77
2022/07/04 02:30:22;;;;;;;4.40;3.90;;;;;;;17.08;100.00;99381.53;5055137;28;20258;-78
2022/07/04 02:32:49;;;;;;;4.37;4.07;;;;;;;17.04;100.00;99377.75;5073163;28;20316;-77
2022/07/04 02:35:16;;;;;;;4.83;4.37;;;;;;;16.99;100.00;99382.34;5067510;28;21003;-78
2022/07/04 02:37:42;;;;;;;4.20;3.83;;;;;;;16.95;100.00;99378.53;5075498;28;20227;-78
2022/07/04 02:40:09;;;;;;;6.13;4.20;;;;;;;16.88;100.00;99381.50;5071664;28;20323;-81
2022/07/04 02:42:36;;;;;;;4.40;3.60;;;;;;;16.85;100.00;99376.63;5071938;28;20327;-78
2022/07/04 02:45:04;;;;;;;4.60;4.00;;;;;;;16.87;100.00;99376.34;5064880;28;20602;-78
2022/07/04 02:47:31;;;;;;;4.20;3.90;;;;;;;16.83;100.00;99386.91;5072912;28;20260;-78
2022/07/04 02:50:01;;;;;;;4.50;4.10;;;;;;;16.78;100.00;99381.47;5060441;28;20277;-78
2022/07/04 02:52:29;;;;;;;4.50;4.20;;;;;;;16.77;100.00;99395.25;5063146;28;20772;-78
2022/07/04 02:54:56;;;;;;;4.20;3.90;;;;;;;16.76;100.00;99391.75;5069656;28;20740;-78
2022/07/04 02:57:23;;;;;;;4.77;4.37;;;;;;;16.75;100.00;99392.81;5075156;28;20240;-78
2022/07/04 02:59:49;;;;;;;4.20;3.90;;;;;;;16.73;100.00;99398.50;5070631;28;20610;-78
2022/07/04 03:02:16;;;;;;;4.93;4.53;;;;;;;16.76;100.00;99388.22;5066666;28;20218;-79
2022/07/04 03:04:43;;;;;;;4.50;3.93;;;;;;;16.76;100.00;99385.50;5070283;28;20712;-78
2022/07/04 03:07:10;;;;;;;4.67;4.10;;;;;;;16.72;100.00;99394.16;5051805;28;20233;-77
2022/07/04 03:09:36;;;;;;;4.10;3.80;;;;;;;16.71;100.00;99378.19;5076021;28;20323;-78
2022/07/04 03:12:03;;;;;;;4.20;3.90;;;;;;;16.72;100.00;99375.22;5066856;28;20608;-78
2022/07/04 03:14:30;;;;;;;4.70;4.30;;;;;;;16.71;100.00;99381.72;5067095;28;20236;-78
2022/07/04 03:16:57;;;;;;;4.43;4.13;;;;;;;16.71;100.00;99386.31;5070871;28;20235;-79
2022/07/04 03:19:23;;;;;;;4.60;4.20;;;;;;;16.72;100.00;99380.63;5073795;28;20724;-78
2022/07/04 03:21:50;;;;;;;4.40;4.00;;;;;;;16.68;100.00;99379.56;5070761;28;20703;-78
2022/07/04 03:24:17;;;;;;;4.60;4.30;;;;;;;16.72;100.00;99382.53;5064073;28;20315;-78
2022/07/04 03:26:43;;;;;;;4.20;3.90;;;;;;;16.80;100.00;99386.63;5072567;28;20224;-79
2022/07/04 03:29:10;;;;;;;4.30;4.00;;;;;;;16.82;100.00;99395.28;5068081;28;20239;-78
2022/07/04 03:31:36;;;;;;;4.47;4.07;;;;;;;16.86;100.00;99399.06;5069994;28;20233;-78
2022/07/04 03:34:03;;;;;;;4.20;3.90;;;;;;;16.89;100.00;99393.16;5069438;28;20240;-78
2022/07/04 03:36:30;;;;;;;4.40;4.10;;;;;;;16.93;100.00;99399.66;5064106;28;20220;-78
2022/07/04 03:38:56;;;;;;;4.57;4.27;;;;;;;16.96;100.00;99401.81;5071522;28;20236;-78
2022/07/04 03:41:23;;;;;;;4.97;4.10;;;;;;;17.00;100.00;99406.44;5076306;28;20995;-77
2022/07/04 03:43:50;;;;;;;4.30;3.90;;;;;;;17.06;100.00;99407.25;5075488;28;20264;-78
2022/07/04 03:46:16;;;;;;;4.50;4.20;;;;;;;17.14;100.00;99406.72;5075581;28;20231;-78
2022/07/04 03:48:43;;;;;;;4.33;4.00;;;;;;;17.17;100.00;99411.59;5071941;28;20235;-78
2022/07/04 03:51:11;;;;;;;4.43;4.13;;;;;;;17.24;100.00;99414.88;5076651;28;20240;-79
2022/07/04 03:53:39;;;;;;;4.17;3.87;;;;;;;17.32;100.00;99422.47;5075586;28;20220;-79
2022/07/04 03:56:06;;;;;;;3.97;3.67;;;;;;;17.42;100.00;99422.47;5078825;28;20771;-78
2022/07/04 03:58:32;;;;;;;4.20;3.80;;;;;;;17.50;100.00;99421.13;5079887;28;20744;-78
2022/07/04 04:00:59;;;;;;;4.13;3.80;;;;;;;17.62;100.00;99429.03;5076269;28;20315;-79
2022/07/04 04:06:11;;;;;;;4.37;4.07;;;;;;;18.83;100.00;99417.97;5076540;28;20225;-78
2022/07/04 04:08:38;;;;;;;4.00;3.67;;;;;;;20.39;100.00;99426.88;5073829;28;20605;-78
2022/07/04 04:11:05;;;;;;;4.40;3.27;;;;;;;21.24;100.00;99432.38;5079104;28;20239;-79
2022/07/04 04:13:31;;;;;;;5.13;3.30;;;;;;;21.67;100.00;99427.66;5073131;28;20313;-78
2022/07/04 04:15:58;;;;;;;3.70;3.40;;;;;;;22.04;100.00;99428.72;5079361;28;20490;-78
2022/07/04 04:18:24;;;;;;;3.20;2.90;;;;;;;22.34;100.00;99444.56;5077318;28;20315;-78
2022/07/04 04:20:51;;;;;;;3.83;3.23;;;;;;;22.55;100.00;99444.97;5079372;28;20715;-78
2022/07/04 04:23:18;;;;;;;3.50;3.20;;;;;;;22.67;100.00;99437.09;5076209;28;20260;-78
2022/07/04 04:25:44;;;;;;;3.80;3.50;;;;;;;22.73;100.00;99438.63;5078151;28;20231;-78
2022/07/04 04:28:11;;;;;;;3.40;3.10;;;;;;;23.11;98.61;99442.75;5067679;28;20262;-78
2022/07/04 04:30:38;;;;;;;3.33;2.97;;;;;;;23.76;91.71;99510.75;5076417;28;20315;-78
2022/07/04 04:33:04;;;;;;;3.73;3.00;;;;;;;24.35;84.66;99533.44;5051309;28;20243;-78
2022/07/04 04:35:31;;;;;;;3.00;2.80;;;;;;;25.08;77.92;99477.22;5072706;28;20577;-79
2022/07/04 04:37:58;;;;;;;2.83;2.63;;;;;;;25.86;71.69;99451.50;5083569;28;20231;-78
2022/07/04 04:40:24;;;;;;;3.17;2.83;;;;;;;26.34;66.56;99445.78;5065376;28;20248;-78
2022/07/04 04:42:51;;;;;;;4.28;2.85;;;;;;;26.01;67.90;99441.94;5082271;28;20227;-79
2022/07/04 04:45:18;;;;;;;3.40;3.05;;;;;;;25.75;69.34;99447.50;5070699;28;20241;-79
2022/07/04 04:47:44;;;;;;;2.83;2.60;;;;;;;25.63;70.32;99453.59;5069797;28;20324;-80
2022/07/04 04:50:12;;;;;;;3.83;2.90;;;;;;;25.69;71.15;99440.53;5076075;28;20270;-78
2022/07/04 04:52:38;;;;;;;3.75;2.88;;;;;;;25.59;72.69;99449.91;5073354;28;20773;-78
2022/07/04 04:55:05;;;;;;;2.88;2.67;;;;;;;25.33;73.93;99441.66;5077638;28;20259;-78
2022/07/04 04:57:32;;;;;;;2.70;2.60;;;;;;;25.26;75.10;99443.22;5078301;28;20230;-78
2022/07/04 04:59:59;;;;;;;2.95;2.60;;;;;;;25.36;74.65;99442.94;5063403;28;20911;-78
2022/07/04 05:02:26;;;;;;;3.10;2.90;;;;;;;25.68;72.46;99453.44;5072504;28;20769;-78
2022/07/04 05:04:53;;;;;;;2.92;2.72;;;;;;;25.81;73.56;99457.97;5076221;28;20290;-76
2022/07/04 05:07:20;;;;;;;3.88;2.90;;;;;;;25.79;73.03;99451.19;5078766;28;20628;-76
2022/07/04 05:09:46;;;;;;;2.75;2.55;;;;;;;25.81;74.30;99451.66;5062409;28;20321;-77
2022/07/04 05:12:13;;;;;;;3.45;3.15;;;;;;;25.83;76.44;99457.66;5049802;28;20368;-76
2022/07/04 05:14:40;;;;;;;4.40;2.90;;;;;;;25.88;77.20;99462.97;5073471;28;20334;-76
2022/07/04 05:17:07;;;;;;;5.05;3.20;;;;;;;25.93;77.98;99467.47;5066555;28;20236;-76
2022/07/04 05:19:34;;;;;;;3.00;2.70;;;;;;;26.15;76.95;99467.28;5070591;28;20230;-76
2022/07/04 05:22:01;;;;;;;3.42;3.10;;;;;;;26.09;76.28;99466.63;5072364;28;20224;-76
2022/07/04 05:24:27;;;;;;;2.92;2.70;;;;;;;26.27;75.35;99465.50;5067487;28;20227;-76
2022/07/04 05:26:54;;;;;;;4.05;2.75;;;;;;;26.41;73.09;99473.53;5071566;28;20315;-77
2022/07/04 05:29:24;;;;;;;3.80;3.50;;;;;;;26.31;74.29;99471.16;5077170;28;20394;-76
2022/07/04 05:31:50;;;;;;;5.30;3.10;;;;;;;26.06;76.72;99472.78;5068572;28;20318;-76
2022/07/04 05:34:18;;;;;;;3.33;3.03;;;;;;;25.94;77.37;99471.84;5068436;28;20232;-77
2022/07/04 05:36:45;;;;;;;3.25;3.00;;;;;;;25.97;76.47;99472.00;5065406;28;20233;-76
2022/07/04 05:39:12;;;;;;;3.30;2.95;;;;;;;25.87;77.79;99480.56;5071227;28;20326;-76
2022/07/04 05:41:38;;;;;;;3.58;2.97;;;;;;;25.79;79.92;99470.41;5066908;28;20223;-77
2022/07/04 05:44:05;;;;;;;4.00;3.70;;;;;;;25.72;80.58;99472.81;5067425;28;20604;-77
2022/07/04 05:46:32;;;;;;;4.57;3.00;;;;;;;25.93;78.71;99473.78;5072027;28;20788;-77
2022/07/04 05:48:58;;;;;;;3.22;2.90;;;;;;;25.82;76.70;99475.22;5072383;28;20241;-77
2022/07/04 05:51:25;;;;;;;3.55;3.25;;;;;;;25.98;76.10;99473.63;5064209;28;20714;-77
2022/07/04 05:53:52;;;;;;;4.07;3.40;;;;;;;26.35;72.64;99474.06;5049308;28;20286;-76
2022/07/04 05:56:19;;;;;;;3.50;3.20;;;;;;;26.34;71.46;99473.25;5052481;28;20233;-76
2022/07/04 05:58:45;;;;;;;3.45;3.17;;;;;;;26.42;68.81;99469.66;5062180;28;20259;-76
2022/07/04 06:01:12;;;;;;;3.20;2.90;;;;;;;26.66;67.06;99464.41;5065648;28;20255;-77
2022/07/04 06:03:38;;;;;;;3.63;3.00;;;;;;;26.80;65.31;99466.13;5068124;28;20251;-77
2022/07/04 06:06:05;;;;;;;3.30;3.05;;;;;;;27.08;61.69;99473.59;5062943;28;20320;-77
2022/07/04 06:08:32;;;;;;;3.30;2.97;;;;;;;27.56;59.09;99466.84;5066140;28;20752;-77
2022/07/04 06:10:58;;;;;;;3.22;2.92;;;;;;;28.35;55.49;99476.81;5060556;28;20251;-77
2022/07/04 06:13:27;;;;;;;3.58;3.28;;;;;;;29.31;51.48;99467.00;5060859;28;20316;-76
2022/07/04 06:15:53;;;;;;;4.68;3.03;;;;;;;29.85;49.37;99475.75;5059733;28;20264;-78
2022/07/04 06:18:20;;;;;;;3.92;3.03;;;;;;;30.21;48.47;99480.31;5064882;28;20237;-77
2022/07/04 06:20:47;;;;;;;5.32;3.20;;;;;;;29.71;49.75;99476.13;5065898;28;20242;-76
2022/07/04 06:23:13;;;;;;;3.65;3.22;;;;;;;29.60;51.47;99476.97;5070910;28;20312;-77
2022/07/04 06:25:40;;;;;;;6.55;3.50;;;;;;;29.61;50.91;99476.63;5071801;28;20236;-76
2022/07/04 06:28:07;;;;;;;6.68;3.70;;;;;;;29.50;52.13;99483.75;5067042;28;20300;-76
2022/07/04 06:30:54;;;;;;;3.78;3.15;;;;;;;29.24;52.77;99481.38;5072491;28;20236;-77
2022/07/04 06:33:20;;;;;;;4.07;3.30;;;;;;;29.16;54.19;99490.56;5063432;28;20731;-77
2022/07/04 06:35:56;;;;;;;3.65;3.35;;;;;;;29.36;53.58;99485.28;5049843;28;20763;-76
2022/07/04 06:38:28;;;;;;;4.03;3.10;;;;;;;29.25;56.06;99501.50;5072705;28;20228;-76
2022/07/04 06:40:57;;;;;;;3.78;3.40;;;;;;;28.68;56.82;99502.38;5047642;28;20261;-76
2022/07/04 06:43:24;;;;;;;6.47;4.15;;;;;;;28.73;56.71;99501.38;5067203;28;20282;-76
2022/07/04 06:45:52;;;;;;;4.97;3.80;;;;;;;28.76;56.95;99489.66;5065098;28;20699;-76
2022/07/04 06:48:19;;;;;;;5.30;3.70;;;;;;;28.65;57.53;99494.00;5062956;28;20240;-76
2022/07/04 06:50:45;;;;;;;7.40;3.63;;;;;;;28.46;59.14;99500.81;5064178;28;20287;-76
2022/07/04 06:53:12;;;;;;;4.85;3.47;;;;;;;28.59;59.46;99509.13;5065260;28;20743;-76
2022/07/04 06:55:40;;;;;;;7.07;3.60;;;;;;;28.58;57.45;99513.03;5071726;28;20244;-76
2022/07/04 06:58:08;;;;;;;8.25;3.58;;;;;;;28.65;58.27;99521.56;5062119;28;20602;-76
2022/07/04 07:00:35;;;;;;;5.45;2.97;;;;;;;28.75;59.43;99529.38;5066364;28;20255;-76
2022/07/04 07:03:03;;;;;;;3.85;2.78;;;;;;;29.08;56.92;99529.31;5065049;28;20320;-76
2022/07/04 07:05:30;;;;;;;3.03;2.42;;;;;;;29.36;55.66;99540.47;5068505;28;20333;-76
2022/07/04 07:08:17;;;;;;;5.13;2.40;;;;;;;29.77;52.72;99536.63;5065430;28;20232;-76
2022/07/04 07:10:43;;;;;;;6.90;2.83;;;;;;;30.05;50.29;99541.03;5060067;28;20228;-76
2022/07/04 07:13:10;;;;;;;3.25;2.58;;;;;;;29.82;50.48;99534.41;5064516;28;20781;-76
2022/07/04 07:15:37;;;;;;;4.15;2.83;;;;;;;30.07;48.96;99548.97;5064296;28;20603;-75
2022/07/04 07:18:04;;;;;;;2.67;2.38;;;;;;;30.11;49.58;99549.88;5068685;28;20750;-77
2022/07/04 07:20:31;;;;;;;4.47;2.83;;;;;;;30.23;50.45;99535.22;5059950;28;20658;-75
2022/07/04 07:22:57;;;;;;;6.00;2.85;;;;;;;29.95;50.09;99543.50;5067848;28;20234;-76
2022/07/04 07:25:24;;;;;;;5.53;2.65;;;;;;;30.15;49.69;99535.00;5066368;28;20229;-78
2022/07/04 07:27:50;;;;;;;6.05;2.40;;;;;;;30.12;50.32;99526.63;5062600;28;20268;-76
2022/07/04 07:30:17;;;;;;;3.63;2.78;;;;;;;29.54;51.68;99528.03;5070900;28;20295;-75
2022/07/04 07:32:44;;;;;;;2.78;2.58;;;;;;;29.59;51.93;99536.06;5062372;28;20726;-76
2022/07/04 07:35:11;;;;;;;4.25;2.65;;;;;;;29.48;52.44;99543.25;5068184;28;20632;-77
2022/07/04 07:37:38;;;;;;;3.22;2.78;;;;;;;29.88;52.14;99544.09;5053255;28;20238;-76
2022/07/04 07:40:05;;;;;;;7.15;2.90;;;;;;;29.93;51.69;99543.84;5069672;28;20228;-76
2022/07/04 07:42:33;;;;;;;5.70;2.80;;;;;;;30.40;48.17;99534.91;5068439;28;20244;-76
2022/07/04 07:45:00;;;;;;;3.45;2.83;;;;;;;30.69;46.35;99539.28;5064060;28;20278;-75
2022/07/04 07:47:27;;;;;;;6.00;2.70;;;;;;;30.70;45.94;99538.13;5066135;28;20257;-76
2022/07/04 07:49:53;;;;;;;2.95;2.53;;;;;;;31.33;44.20;99530.63;5065422;28;20323;-76
2022/07/04 07:52:20;;;;;;;3.88;2.70;;;;;;;31.77;44.09;99520.16;5073081;28;20225;-76
2022/07/04 07:54:52;;;;;;;4.25;2.72;;;;;;;31.79;43.50;99521.41;5068114;28;20240;-76
2022/07/04 07:57:28;;;;;;;3.25;2.10;;;;;;;31.88;41.22;99516.44;5066675;28;20236;-77
2022/07/04 07:59:55;;;;;;;1.80;1.70;;;;;;;31.44;39.69;99518.63;5072312;28;20273;-75
2022/07/04 08:04:34;;;;;;;2.03;1.60;;;;;;;31.24;39.66;99507.88;5063624;28;20568;-77
2022/07/04 08:05:10;;;;;;;2.95;1.77;;;;;;;30.83;40.42;99512.78;5062316;28;20260;-76
2022/07/04 08:07:37;;;;;;;1.65;1.55;;;;;;;30.60;41.89;99514.56;5075670;28;20229;-76
2022/07/04 08:10:04;;;;;;;1.75;1.65;;;;;;;30.13;42.56;99509.72;5070678;28;20319;-75
2022/07/04 08:12:31;;;;;;;2.13;1.60;;;;;;;30.05;43.01;99510.66;5069826;28;20304;-76
2022/07/04 08:14:58;;;;;;;1.95;1.45;;;;;;;30.32;41.91;99513.78;5067199;28;20229;-76
2022/07/04 08:17:32;;;;;;;1.55;1.40;;;;;;;30.00;41.35;99505.38;5065361;28;20712;-76
2022/07/04 08:19:58;;;;;;;2.05;1.45;;;;;;;30.23;42.10;99502.88;5064434;28;20241;-74
2022/07/04 08:22:25;;;;;;;2.85;1.58;;;;;;;30.67;41.23;99505.63;5066589;28;20240;-76
2022/07/04 08:24:52;;;;;;;1.73;1.30;;;;;;;31.03;40.11;99508.16;5063536;28;20224;-75
2022/07/04 08:27:22;;;;;;;1.58;1.48;;;;;;;31.32;39.05;99504.09;5070027;28;20707;-76
2022/07/04 08:29:57;;;;;;;4.00;1.50;;;;;;;31.84;38.12;99512.00;5068543;28;20227;-75
2022/07/04 08:32:24;;;;;;;1.65;1.40;;;;;;;32.36;37.46;99507.91;5066198;28;20324;-76
2022/07/04 08:34:51;;;;;;;3.25;1.60;;;;;;;32.72;37.28;99515.72;5074197;28;20233;-75
2022/07/04 08:37:17;;;;;;;2.20;1.40;;;;;;;33.02;36.08;99521.41;5067305;28;20231;-76
2022/07/04 08:39:44;;;;;;;1.73;1.48;;;;;;;33.40;35.88;99523.22;5067076;28;20237;-76
2022/07/04 08:42:18;;;;;;;2.38;1.55;;;;;;;33.83;34.15;99525.41;5071745;28;20259;-77
2022/07/04 08:44:50;;;;;;;2.47;1.70;;;;;;;33.55;33.86;99533.31;5072802;28;20232;-76
2022/07/04 08:47:22;;;;;;;2.85;1.70;;;;;;;33.73;33.80;99528.88;5066292;28;20291;-75
2022/07/04 08:50:10;;;;;;;2.85;1.40;;;;;;;33.87;33.82;99536.59;5070712;28;20241;-76
2022/07/04 08:52:41;;;;;;;1.80;1.40;;;;;;;33.69;34.20;99528.00;5066605;28;20465;-75
2022/07/04 09:00:44;;;;;;;2.05;1.52;;;;;;;31.60;37.81;99539.94;5070748;28;20282;-75
2022/07/04 09:03:11;;;;;;;1.73;1.50;;;;;;;31.02;40.60;99537.81;5070837;28;20230;-75
2022/07/04 09:05:38;;;;;;;2.15;1.40;;;;;;;30.48;42.00;99537.53;5066895;28;20257;-74
2022/07/04 09:08:05;;;;;;;2.35;1.50;;;;;;;30.13;43.22;99533.78;5071310;28;20232;-76
2022/07/04 09:10:32;;;;;;;2.33;1.50;;;;;;;29.72;43.64;99535.69;5071670;28;20229;-75
2022/07/04 09:13:02;;;;;;;1.92;1.60;;;;;;;29.44;45.84;99542.31;5069539;28;20232;-75
2022/07/04 09:15:40;;;;;;;2.28;1.70;;;;;;;29.09;48.07;99559.31;5069720;28;20240;-76
2022/07/04 09:18:06;;;;;;;1.67;1.50;;;;;;;28.92;51.20;99553.22;5065465;28;20239;-75
2022/07/04 09:20:33;;;;;;;3.83;1.80;;;;;;;28.59;54.25;99547.72;5055842;28;20232;-75
2022/07/04 09:23:00;;;;;;;3.13;1.70;;;;;;;28.35;59.81;99551.19;5073527;28;20319;-76
2022/07/04 09:25:27;;;;;;;3.13;1.80;;;;;;;28.09;64.62;99545.88;5068719;28;20911;-75
2022/07/04 09:27:56;;;;;;;5.80;2.00;;;;;;;27.77;67.11;99541.13;5071148;28;20253;-76
2022/07/04 09:30:25;;;;;;;6.00;2.22;;;;;;;27.48;71.13;99548.28;5061789;28;20256;-76
2022/07/04 09:32:59;;;;;;;3.17;1.90;;;;;;;27.20;74.08;99533.41;5075194;28;20274;-78
2022/07/04 09:35:31;;;;;;;5.47;2.10;;;;;;;26.89;80.59;99541.94;5047453;28;20767;-79
2022/07/04 09:38:03;;;;;;;2.28;1.77;;;;;;;26.64;90.40;99540.06;5073148;28;20286;-77
2022/07/04 09:43:25;;;;;;;2.47;2.25;;;;;;;26.10;100.00;99503.13;5066610;28;20221;-78
2022/07/04 09:46:01;;;;;;;2.70;2.40;;;;;;;25.98;100.00;99487.34;5065376;28;20322;-78
2022/07/04 09:48:49;;;;;;;2.72;2.50;;;;;;;26.19;100.00;99473.72;5066006;28;20236;-78
2022/07/04 09:51:43;;;;;;;3.15;2.58;;;;;;;26.46;100.00;99476.09;5071122;28;20743;-75
2022/07/04 09:54:20;;;;;;;2.90;2.25;;;;;;;26.86;100.00;99476.63;5059363;28;20229;-78
2022/07/04 09:56:51;;;;;;;3.92;2.70;;;;;;;27.16;100.00;99481.00;5067043;28;20240;-78
2022/07/04 09:59:18;;;;;;;3.03;2.60;;;;;;;27.46;100.00;99483.72;5066828;28;20280;-77
2022/07/04 10:01:45;;;;;;;2.63;2.33;;;;;;;27.66;100.00;99496.72;5067632;28;20751;-78
2022/07/04 10:04:13;;;;;;;3.58;2.80;;;;;;;27.69;100.00;99495.22;5067010;28;20707;-78
2022/07/04 10:06:41;;;;;;;3.33;2.50;;;;;;;27.72;100.00;99489.03;5068886;28;20508;-78
2022/07/04 10:09:12;;;;;;;3.22;2.33;;;;;;;27.84;100.00;99489.94;5062470;28;20622;-78
2022/07/04 10:11:40;;;;;;;2.92;2.58;;;;;;;28.06;100.00;99476.91;5048365;28;20233;-78
2022/07/04 10:14:08;;;;;;;3.40;2.53;;;;;;;28.23;100.00;99480.34;5061376;28;20650;-79
2022/07/04 10:16:36;;;;;;;3.00;2.50;;;;;;;28.29;99.62;99476.22;5063732;28;20328;-74
2022/07/04 10:19:03;;;;;;;2.50;2.25;;;;;;;28.48;94.18;99467.44;5049211;28;20287;-78
2022/07/04 10:21:31;;;;;;;3.20;2.60;;;;;;;28.36;92.12;99470.97;5069972;28;20227;-78
2022/07/04 10:23:58;;;;;;;3.60;2.50;;;;;;;28.44;92.27;99477.53;5053457;28;20232;-78
2022/07/04 10:26:27;;;;;;;3.38;2.58;;;;;;;28.48;91.01;99474.88;5068348;28;20317;-79
2022/07/04 10:28:54;;;;;;;4.50;2.78;;;;;;;28.41;90.81;99480.97;5070978;28;20236;-77
2022/07/04 10:31:23;;;;;;;4.28;2.58;;;;;;;28.30;94.98;99472.31;5054191;28;20232;-79
2022/07/04 10:33:50;;;;;;;4.35;2.70;;;;;;;28.06;97.44;99474.16;5052644;28;20331;-79
2022/07/04 10:36:20;;;;;;;3.15;2.60;;;;;;;28.01;96.11;99480.69;5066119;28;20716;-77
2022/07/04 10:38:48;;;;;;;2.60;2.40;;;;;;;27.94;98.17;99484.00;5060913;28;20399;-75
2022/07/04 10:41:15;;;;;;;4.57;2.63;;;;;;;28.11;94.48;99493.25;5060997;28;20713;-77
2022/07/04 10:43:47;;;;;;;3.13;2.60;;;;;;;28.02;94.08;99485.88;5072531;28;20308;-76
2022/07/04 10:46:17;;;;;;;3.47;3.03;;;;;;;28.31;93.38;99476.69;5058359;28;20240;-77
2022/07/04 10:49:01;;;;;;;3.97;2.83;;;;;;;28.49;93.30;99477.31;5066825;28;20701;-76
2022/07/04 10:51:33;;;;;;;2.80;2.60;;;;;;;28.67;88.34;99459.41;5074522;28;20750;-76
2022/07/04 10:54:04;;;;;;;3.03;2.58;;;;;;;28.85;83.03;99471.03;5073721;28;20258;-77
2022/07/04 10:56:37;;;;;;;3.85;2.60;;;;;;;29.35;88.30;99476.19;5066549;28;20228;-76
2022/07/04 10:59:18;;;;;;;2.85;2.55;;;;;;;30.09;80.83;99474.88;5070399;28;20243;-76
2022/07/04 11:01:47;;;;;;;3.40;2.67;;;;;;;30.69;72.37;99478.44;5055050;28;20237;-76
2022/07/04 11:04:47;;;;;;;2.65;2.45;;;;;;;31.22;74.36;99482.50;5064581;28;20677;-77
2022/07/04 11:07:15;;;;;;;3.42;2.75;;;;;;;31.48;67.41;99480.75;5066080;28;20640;-76
2022/07/04 11:09:45;;;;;;;3.13;2.58;;;;;;;31.61;64.95;99491.72;5068754;28;20257;-76
2022/07/04 11:12:14;;;;;;;3.45;2.60;;;;;;;31.72;64.68;99496.34;5070373;28;20891;-77
2022/07/04 11:14:43;;;;;;;3.45;2.85;;;;;;;32.06;62.70;99496.59;5064391;28;20236;-77
2022/07/04 11:17:11;;;;;;;3.30;2.80;;;;;;;32.38;61.54;99503.63;5061077;28;20243;-77
2022/07/04 11:19:43;;;;;;;2.92;2.72;;;;;;;32.88;58.82;99508.09;5065314;28;20242;-77
2022/07/04 11:22:10;;;;;;;3.53;2.70;;;;;;;33.28;60.49;99502.00;5062885;28;20745;-77
2022/07/04 11:24:39;;;;;;;3.55;2.88;;;;;;;33.36;62.16;99509.28;5068727;28;20642;-76
2022/07/04 11:27:08;;;;;;;3.38;3.08;;;;;;;33.71;57.06;99503.44;5061109;28;20229;-77
2022/07/04 11:29:35;;;;;;;2.85;2.53;;;;;;;34.30;55.05;99496.22;5062730;28;20232;-77
2022/07/04 11:32:06;;;;;;;3.75;2.65;;;;;;;34.49;52.23;99499.59;5064462;28;20312;-77
2022/07/04 11:34:33;;;;;;;3.40;2.75;;;;;;;34.72;51.81;99490.28;5062917;28;20233;-79
2022/07/04 11:37:02;;;;;;;3.05;2.40;;;;;;;34.92;49.16;99491.66;5063464;28;20221;-77
2022/07/04 11:39:29;;;;;;;2.30;2.20;;;;;;;34.96;48.07;99488.91;5064919;28;20233;-76
2022/07/04 11:47:40;;;;;;;2.70;2.50;;;;;;;34.58;51.20;99479.00;5063886;28;20228;-75
2022/07/04 11:50:11;;;;;;;3.30;2.55;;;;;;;34.33;50.62;99484.34;5050742;28;20233;-76
2022/07/04 11:52:43;;;;;;;2.90;2.70;;;;;;;34.18;48.71;99465.91;5050040;28;20681;-77